createdAt,value
2019-04-27T00:00:14.162Z,11.93
2019-04-27T00:01:19.692Z,10.30
2019-04-27T00:02:28.096Z,11.20
2019-04-27T00:03:41.496Z,10.93
2019-04-27T00:04:48.634Z,11.03
2019-04-27T00:06:08.489Z,12.83
2019-04-27T00:07:28.513Z,11.27
2019-04-27T00:08:38.744Z,11.60
2019-04-27T00:09:50.182Z,12.67
2019-04-27T00:10:50.805Z,12.17
2019-04-27T00:11:59.018Z,12.27
2019-04-27T00:13:05.693Z,11.63
2019-04-27T00:14:10.326Z,11.40
2019-04-27T00:15:16.068Z,11.73
2019-04-27T00:16:21.384Z,11.20
2019-04-27T00:17:49.006Z,11.23
2019-04-27T00:18:49.816Z,10.73
2019-04-27T00:19:56.035Z,9.87
2019-04-27T00:21:04.086Z,10.30
2019-04-27T00:22:12.959Z,10.80
2019-04-27T00:23:19.473Z,10.43
2019-04-27T00:24:23.549Z,10.63
2019-04-27T00:25:27.422Z,8.77
2019-04-27T00:26:31.100Z,10.37
2019-04-27T00:27:34.773Z,10.30
2019-04-27T00:28:38.475Z,9.60
2019-04-27T00:29:43.186Z,10.03
2019-04-27T00:30:47.011Z,9.63
2019-04-27T00:31:50.688Z,9.73
2019-04-27T00:32:54.324Z,8.43
2019-04-27T00:33:58.363Z,9.23
2019-04-27T00:35:03.744Z,9.40
2019-04-27T00:36:09.153Z,8.97
2019-04-27T00:37:33.598Z,8.13
2019-04-27T00:38:39.401Z,9.03
2019-04-27T00:39:47.243Z,8.20
2019-04-27T00:40:58.148Z,8.10
2019-04-27T00:42:03.283Z,7.90
2019-04-27T00:43:07.071Z,8.13
2019-04-27T00:44:10.727Z,7.87
2019-04-27T00:45:15.153Z,9.10
2019-04-27T00:46:18.797Z,9.00
2019-04-27T00:47:23.877Z,7.43
2019-04-27T00:48:27.700Z,8.00
2019-04-27T00:49:32.907Z,8.13
2019-04-27T00:50:36.568Z,8.83
2019-04-27T00:51:40.225Z,7.90
2019-04-27T00:52:43.849Z,8.83
2019-04-27T00:53:47.510Z,8.30
2019-04-27T00:54:51.169Z,8.30
2019-04-27T00:56:03.581Z,8.67
2019-04-27T00:57:09.297Z,9.03
2019-04-27T00:58:14.565Z,9.93
2019-04-27T00:59:36.261Z,8.57
2019-04-27T01:00:50.538Z,8.00
2019-04-27T01:02:13.923Z,9.60
2019-04-27T01:03:19.224Z,8.13
2019-04-27T01:04:24.523Z,7.80
2019-04-27T01:05:29.772Z,9.67
2019-04-27T01:06:33.664Z,9.20
2019-04-27T01:07:37.438Z,8.20
2019-04-27T01:08:42.766Z,9.20
2019-04-27T01:09:47.233Z,7.93
2019-04-27T01:10:50.915Z,9.03
2019-04-27T01:11:54.542Z,8.87
2019-04-27T01:12:58.249Z,7.63
2019-04-27T01:14:03.845Z,8.10
2019-04-27T01:15:08.115Z,8.47
2019-04-27T01:16:13.209Z,8.43
2019-04-27T01:17:18.831Z,7.90
2019-04-27T01:18:22.593Z,8.87
2019-04-27T01:19:26.234Z,8.43
2019-04-27T01:20:30.205Z,9.03
2019-04-27T01:21:34.034Z,10.27
2019-04-27T01:22:39.124Z,10.93
2019-04-27T01:23:43.099Z,11.70
2019-04-27T01:24:46.725Z,10.83
2019-04-27T01:25:54.519Z,9.83
2019-04-27T01:27:15.719Z,10.90
2019-04-27T01:28:23.960Z,7.73
2019-04-27T01:29:29.305Z,9.03
2019-04-27T01:30:34.598Z,7.70
2019-04-27T01:31:39.660Z,7.10
2019-04-27T01:32:43.513Z,7.50
2019-04-27T01:33:48.796Z,8.07
2019-04-27T01:34:52.578Z,6.90
2019-04-27T01:35:56.226Z,6.80
2019-04-27T01:36:59.860Z,7.57
2019-04-27T01:38:03.555Z,6.93
2019-04-27T01:39:10.148Z,7.13
2019-04-27T01:40:13.774Z,8.03
2019-04-27T01:41:19.216Z,8.20
2019-04-27T01:42:22.949Z,10.10
2019-04-27T01:43:26.631Z,11.03
2019-04-27T01:44:30.286Z,10.50
2019-04-27T01:45:33.941Z,10.50
2019-04-27T01:46:37.569Z,11.20
2019-04-27T01:47:41.210Z,12.43
2019-04-27T01:48:44.908Z,12.27
2019-04-27T01:49:49.510Z,13.43
2019-04-27T01:50:53.285Z,14.73
2019-04-27T01:51:56.933Z,15.97
2019-04-27T01:53:00.568Z,18.40
2019-04-27T01:54:06.041Z,22.70
2019-04-27T01:55:09.801Z,22.93
2019-04-27T01:56:13.515Z,22.20
2019-04-27T01:57:17.182Z,23.07
2019-04-27T01:58:20.825Z,23.70
2019-04-27T01:59:24.494Z,23.33
2019-04-27T02:00:32.443Z,23.20
2019-04-27T02:01:46.602Z,22.83
2019-04-27T02:02:52.005Z,21.47
2019-04-27T02:04:00.196Z,20.43
2019-04-27T02:05:09.668Z,20.47
2019-04-27T02:06:13.339Z,22.43
2019-04-27T02:07:16.967Z,19.23
2019-04-27T02:08:20.619Z,18.83
2019-04-27T02:09:24.342Z,19.00
2019-04-27T02:10:29.276Z,18.07
2019-04-27T02:11:33.080Z,18.03
2019-04-27T02:12:36.734Z,17.13
2019-04-27T02:13:40.372Z,17.53
2019-04-27T02:14:44.030Z,17.70
2019-04-27T02:15:48.710Z,17.30
2019-04-27T02:16:52.869Z,19.67
2019-04-27T02:17:56.534Z,20.23
2019-04-27T02:19:00.188Z,20.50
2019-04-27T02:20:05.664Z,22.63
2019-04-27T02:21:09.446Z,23.90
2019-04-27T02:22:13.076Z,25.03
2019-04-27T02:23:16.734Z,28.27
2019-04-27T02:24:20.393Z,28.77
2019-04-27T02:25:24.135Z,27.20
2019-04-27T02:26:29.488Z,27.00
2019-04-27T02:27:34.387Z,23.43
2019-04-27T02:28:56.089Z,23.70
2019-04-27T02:30:04.096Z,21.77
2019-04-27T02:31:24.384Z,20.80
2019-04-27T02:32:32.224Z,21.73
2019-04-27T02:33:43.520Z,23.67
2019-04-27T02:34:51.655Z,22.50
2019-04-27T02:35:55.299Z,21.87
2019-04-27T02:36:59.542Z,21.50
2019-04-27T02:38:04.347Z,21.07
2019-04-27T02:39:09.532Z,20.90
2019-04-27T02:40:49.614Z,20.83
2019-04-27T02:41:53.497Z,21.57
2019-04-27T02:42:57.227Z,21.33
2019-04-27T02:44:02.550Z,21.57
2019-04-27T02:45:06.456Z,22.17
2019-04-27T02:46:10.202Z,22.80
2019-04-27T02:47:13.923Z,22.97
2019-04-27T02:48:19.686Z,21.80
2019-04-27T02:49:22.982Z,22.60
2019-04-27T02:50:26.624Z,21.23
2019-04-27T02:51:43.717Z,22.40
2019-04-27T02:52:50.106Z,24.87
2019-04-27T02:53:54.366Z,25.07
2019-04-27T02:54:59.374Z,27.23
2019-04-27T02:56:03.176Z,27.63
2019-04-27T02:57:09.621Z,29.17
2019-04-27T02:58:13.070Z,27.27
2019-04-27T02:59:19.693Z,27.37
2019-04-27T03:00:22.416Z,25.30
2019-04-27T03:01:30.164Z,25.77
2019-04-27T03:02:34.710Z,25.10
2019-04-27T03:03:38.367Z,23.27
2019-04-27T03:04:42.004Z,20.73
2019-04-27T03:05:45.691Z,19.80
2019-04-27T03:06:50.058Z,20.33
2019-04-27T03:07:53.957Z,20.20
2019-04-27T03:09:00.001Z,20.17
2019-04-27T03:10:03.036Z,19.93
2019-04-27T03:11:06.743Z,20.20
2019-04-27T03:12:10.512Z,19.87
2019-04-27T03:13:15.736Z,17.20
2019-04-27T03:14:32.648Z,15.33
2019-04-27T03:15:30.352Z,13.70
2019-04-27T03:16:39.446Z,13.70
2019-04-27T03:18:01.274Z,13.80
2019-04-27T03:19:24.905Z,13.40
2019-04-27T03:20:46.463Z,16.07
2019-04-27T03:21:59.359Z,13.97
2019-04-27T03:23:04.544Z,14.70
2019-04-27T03:24:09.920Z,13.33
2019-04-27T03:25:16.959Z,14.63
2019-04-27T03:26:22.266Z,15.83
2019-04-27T03:27:30.128Z,19.27
2019-04-27T03:28:33.422Z,17.60
2019-04-27T03:29:37.173Z,17.87
2019-04-27T03:30:43.546Z,18.63
2019-04-27T03:31:53.492Z,18.30
2019-04-27T03:32:56.631Z,20.97
2019-04-27T03:34:04.313Z,22.47
2019-04-27T03:35:04.438Z,23.30
2019-04-27T03:36:12.401Z,20.47
2019-04-27T03:37:13.456Z,21.27
2019-04-27T03:38:19.565Z,23.30
2019-04-27T03:39:22.622Z,21.20
2019-04-27T03:40:26.261Z,21.50
2019-04-27T03:41:29.978Z,23.20
2019-04-27T03:42:37.368Z,23.83
2019-04-27T03:43:40.389Z,24.10
2019-04-27T03:44:44.134Z,23.00
2019-04-27T03:45:49.726Z,21.60
2019-04-27T03:46:53.170Z,22.27
2019-04-27T03:47:56.811Z,21.30
2019-04-27T03:49:00.728Z,22.00
2019-04-27T03:50:06.854Z,21.30
2019-04-27T03:51:12.186Z,20.80
2019-04-27T03:52:20.070Z,21.67
2019-04-27T03:53:25.865Z,21.03
2019-04-27T03:54:33.641Z,18.27
2019-04-27T03:55:50.122Z,16.20
2019-04-27T03:56:54.806Z,16.83
2019-04-27T03:58:11.831Z,15.77
2019-04-27T03:59:19.597Z,15.83
2019-04-27T04:00:29.996Z,13.83
2019-04-27T04:01:33.325Z,13.90
2019-04-27T04:02:37.092Z,15.47
2019-04-27T04:03:40.827Z,13.87
2019-04-27T04:04:44.782Z,14.87
2019-04-27T04:05:49.439Z,15.87
2019-04-27T04:06:53.795Z,18.07
2019-04-27T04:07:57.492Z,16.87
2019-04-27T04:09:01.359Z,18.33
2019-04-27T04:10:07.153Z,19.80
2019-04-27T04:11:15.387Z,18.90
2019-04-27T04:12:36.916Z,17.90
2019-04-27T04:13:42.219Z,16.47
2019-04-27T04:14:45.899Z,18.03
2019-04-27T04:16:10.533Z,16.70
2019-04-27T04:17:14.679Z,15.07
2019-04-27T04:18:19.610Z,14.93
2019-04-27T04:19:23.711Z,14.47
2019-04-27T04:20:27.380Z,13.73
2019-04-27T04:21:31.017Z,14.17
2019-04-27T04:22:40.378Z,15.27
2019-04-27T04:23:43.737Z,16.07
2019-04-27T04:24:47.431Z,15.40
2019-04-27T04:25:51.787Z,16.67
2019-04-27T04:26:55.445Z,15.87
2019-04-27T04:28:00.609Z,16.00
2019-04-27T04:29:04.572Z,14.33
2019-04-27T04:30:11.805Z,13.83
2019-04-27T04:31:14.068Z,14.90
2019-04-27T04:32:19.240Z,13.87
2019-04-27T04:33:23.388Z,15.03
2019-04-27T04:34:29.698Z,12.73
2019-04-27T04:35:33.311Z,12.03
2019-04-27T04:36:37.185Z,11.70
2019-04-27T04:37:40.824Z,13.17
2019-04-27T04:38:44.464Z,12.63
2019-04-27T04:39:53.104Z,13.33
2019-04-27T04:40:55.335Z,12.00
2019-04-27T04:42:10.338Z,12.07
2019-04-27T04:43:15.763Z,12.47
2019-04-27T04:44:21.046Z,13.83
2019-04-27T04:45:30.526Z,12.67
2019-04-27T04:46:39.942Z,12.60
2019-04-27T04:47:45.289Z,11.87
2019-04-27T04:48:50.315Z,10.93
2019-04-27T04:50:07.358Z,12.63
2019-04-27T04:51:00.056Z,11.73
2019-04-27T04:52:03.987Z,11.10
2019-04-27T04:53:11.781Z,10.40
2019-04-27T04:54:13.032Z,11.73
2019-04-27T04:55:16.672Z,12.23
2019-04-27T04:56:20.309Z,11.47
2019-04-27T04:57:24.001Z,10.63
2019-04-27T04:58:29.417Z,11.00
2019-04-27T04:59:33.172Z,11.30
2019-04-27T05:00:37.031Z,10.97
2019-04-27T05:01:40.683Z,10.93
2019-04-27T05:02:44.752Z,10.53
2019-04-27T05:03:48.916Z,14.57
2019-04-27T05:04:52.659Z,44.57
2019-04-27T05:05:56.361Z,13.57
2019-04-27T05:07:00.019Z,12.07
2019-04-27T05:08:03.691Z,14.77
2019-04-27T05:09:09.162Z,12.47
2019-04-27T05:10:12.956Z,12.30
2019-04-27T05:11:16.590Z,12.17
2019-04-27T05:12:20.347Z,12.90
2019-04-27T05:13:24.189Z,15.13
2019-04-27T05:14:28.870Z,25.30
2019-04-27T05:15:32.720Z,29.50
2019-04-27T05:16:36.358Z,34.20
2019-04-27T05:17:40.035Z,30.47
2019-04-27T05:18:43.688Z,31.13
2019-04-27T05:19:49.124Z,32.53
2019-04-27T05:20:54.463Z,31.00
2019-04-27T05:21:59.284Z,31.03
2019-04-27T05:23:02.970Z,30.43
2019-04-27T05:24:06.656Z,28.27
2019-04-27T05:25:10.984Z,28.10
2019-04-27T05:26:15.102Z,25.87
2019-04-27T05:27:19.196Z,25.97
2019-04-27T05:28:22.906Z,25.30
2019-04-27T05:29:26.566Z,24.17
2019-04-27T05:30:30.232Z,22.73
2019-04-27T05:31:33.869Z,21.67
2019-04-27T05:32:39.308Z,21.47
2019-04-27T05:33:42.964Z,19.73
2019-04-27T05:34:46.640Z,19.30
2019-04-27T05:35:50.369Z,19.13
2019-04-27T05:36:54.032Z,19.60
2019-04-27T05:38:02.406Z,19.00
2019-04-27T05:39:04.337Z,18.47
2019-04-27T05:40:09.151Z,18.50
2019-04-27T05:41:12.845Z,17.53
2019-04-27T05:42:18.981Z,17.47
2019-04-27T05:43:25.585Z,17.00
2019-04-27T05:44:45.671Z,15.67
2019-04-27T05:46:12.406Z,14.77
2019-04-27T05:47:19.064Z,14.10
2019-04-27T05:48:28.674Z,14.17
2019-04-27T05:49:36.425Z,14.60
2019-04-27T05:50:45.646Z,12.60
2019-04-27T05:51:47.926Z,13.07
2019-04-27T05:52:50.989Z,14.63
2019-04-27T05:53:54.611Z,13.13
2019-04-27T05:54:59.118Z,13.13
2019-04-27T05:56:02.940Z,11.73
2019-04-27T05:57:06.635Z,12.57
2019-04-27T05:58:10.317Z,12.80
2019-04-27T05:59:14.787Z,12.17
2019-04-27T06:00:20.656Z,12.40
2019-04-27T06:01:24.326Z,13.43
2019-04-27T06:02:30.261Z,14.23
2019-04-27T06:03:34.105Z,15.70
2019-04-27T06:04:39.067Z,16.27
2019-04-27T06:05:43.128Z,16.50
2019-04-27T06:06:46.779Z,14.93
2019-04-27T06:07:50.490Z,16.80
2019-04-27T06:08:54.143Z,15.57
2019-04-27T06:09:59.543Z,15.13
2019-04-27T06:11:03.152Z,15.40
2019-04-27T06:12:06.834Z,14.90
2019-04-27T06:13:10.637Z,15.07
2019-04-27T06:14:14.352Z,14.60
2019-04-27T06:15:19.739Z,14.20
2019-04-27T06:16:23.510Z,14.43
2019-04-27T06:17:27.182Z,14.23
2019-04-27T06:18:31.264Z,13.90
2019-04-27T06:19:34.841Z,13.67
2019-04-27T06:20:50.368Z,13.77
2019-04-27T06:21:44.509Z,15.00
2019-04-27T06:22:48.888Z,13.93
2019-04-27T06:23:52.935Z,14.30
2019-04-27T06:24:56.572Z,13.23
2019-04-27T06:26:01.861Z,12.70
2019-04-27T06:27:05.685Z,14.27
2019-04-27T06:28:09.332Z,12.63
2019-04-27T06:29:13.019Z,13.30
2019-04-27T06:30:16.654Z,12.37
2019-04-27T06:31:20.297Z,12.00
2019-04-27T06:32:23.958Z,12.53
2019-04-27T06:33:33.827Z,12.33
2019-04-27T06:34:32.988Z,11.17
2019-04-27T06:35:36.651Z,12.53
2019-04-27T06:36:40.727Z,11.63
2019-04-27T06:37:44.454Z,11.73
2019-04-27T06:38:48.579Z,11.23
2019-04-27T06:39:52.585Z,11.30
2019-04-27T06:40:56.242Z,11.53
2019-04-27T06:42:01.279Z,10.50
2019-04-27T06:43:05.313Z,9.10
2019-04-27T06:44:10.989Z,10.67
2019-04-27T06:45:14.467Z,10.53
2019-04-27T06:46:19.882Z,11.17
2019-04-27T06:47:23.741Z,9.93
2019-04-27T06:48:29.504Z,10.90
2019-04-27T06:49:36.034Z,11.47
2019-04-27T06:50:39.703Z,11.50
2019-04-27T06:51:43.358Z,11.83
2019-04-27T06:52:46.910Z,12.47
2019-04-27T06:53:50.556Z,12.07
2019-04-27T06:54:54.193Z,12.80
2019-04-27T06:55:58.637Z,13.07
2019-04-27T06:57:02.295Z,12.83
2019-04-27T06:58:05.933Z,13.07
2019-04-27T06:59:09.589Z,13.43
2019-04-27T07:00:13.444Z,13.50
2019-04-27T07:01:18.938Z,12.37
2019-04-27T07:02:22.490Z,11.90
2019-04-27T07:03:26.134Z,10.83
2019-04-27T07:04:29.788Z,9.90
2019-04-27T07:05:33.448Z,11.67
2019-04-27T07:06:37.104Z,11.70
2019-04-27T07:07:40.760Z,11.60
2019-04-27T07:08:44.396Z,11.47
2019-04-27T07:09:49.289Z,11.53
2019-04-27T07:10:53.081Z,11.40
2019-04-27T07:11:56.871Z,11.33
2019-04-27T07:13:00.910Z,10.20
2019-04-27T07:14:04.543Z,9.90
2019-04-27T07:15:08.883Z,10.20
2019-04-27T07:16:12.721Z,10.72
2019-04-27T07:17:16.437Z,10.83
2019-04-27T07:18:20.105Z,10.25
2019-04-27T07:19:23.742Z,11.35
2019-04-27T07:20:30.302Z,11.75
2019-04-27T07:21:32.830Z,10.13
2019-04-27T07:22:36.523Z,11.83
2019-04-27T07:23:41.799Z,10.32
2019-04-27T07:24:45.435Z,10.95
2019-04-27T07:25:49.091Z,11.45
2019-04-27T07:26:52.748Z,11.85
2019-04-27T07:27:56.426Z,12.45
2019-04-27T07:29:00.088Z,12.95
2019-04-27T07:30:05.522Z,11.60
2019-04-27T07:31:09.630Z,11.15
2019-04-27T07:32:13.401Z,12.58
2019-04-27T07:33:18.631Z,12.70
2019-04-27T07:34:22.398Z,17.55
2019-04-27T07:35:26.048Z,11.73
2019-04-27T07:36:29.710Z,14.05
2019-04-27T07:37:33.375Z,8.85
2019-04-27T07:38:37.050Z,9.03
2019-04-27T07:39:41.112Z,8.28
2019-04-27T07:40:44.767Z,9.33
2019-04-27T07:41:48.932Z,8.93
2019-04-27T07:42:54.365Z,8.25
2019-04-27T07:43:59.668Z,10.20
2019-04-27T07:45:19.548Z,9.20
2019-04-27T07:46:23.397Z,9.43
2019-04-27T07:47:31.555Z,9.00
2019-04-27T07:48:35.234Z,8.58
2019-04-27T07:49:39.147Z,9.63
2019-04-27T07:50:42.834Z,9.28
2019-04-27T07:51:46.483Z,9.35
2019-04-27T07:52:50.137Z,8.13
2019-04-27T07:53:53.801Z,8.35
2019-04-27T07:54:58.755Z,7.90
2019-04-27T07:56:02.594Z,8.55
2019-04-27T07:57:06.230Z,8.18
2019-04-27T07:58:09.888Z,8.58
2019-04-27T07:59:14.993Z,8.58
2019-04-27T08:00:19.261Z,8.78
2019-04-27T08:01:22.958Z,7.62
2019-04-27T08:02:26.593Z,8.00
2019-04-27T08:03:30.251Z,7.97
2019-04-27T08:04:33.887Z,7.15
2019-04-27T08:05:39.134Z,7.90
2019-04-27T08:06:42.901Z,8.30
2019-04-27T08:07:46.544Z,7.40
2019-04-27T08:08:50.172Z,7.50
2019-04-27T08:09:53.825Z,6.90
2019-04-27T08:10:59.392Z,7.03
2019-04-27T08:12:02.867Z,8.40
2019-04-27T08:13:06.525Z,8.45
2019-04-27T08:14:10.152Z,8.05
2019-04-27T08:15:13.991Z,8.00
2019-04-27T08:16:18.337Z,7.90
2019-04-27T08:17:23.055Z,8.13
2019-04-27T08:18:26.689Z,8.30
2019-04-27T08:19:30.327Z,7.67
2019-04-27T08:20:33.976Z,8.03
2019-04-27T08:21:44.580Z,8.18
2019-04-27T08:22:43.021Z,8.65
2019-04-27T08:23:46.659Z,9.25
2019-04-27T08:24:50.297Z,9.13
2019-04-27T08:25:53.954Z,9.48
2019-04-27T08:27:02.218Z,9.73
2019-04-27T08:28:10.665Z,9.58
2019-04-27T08:29:21.823Z,8.13
2019-04-27T08:30:39.413Z,8.23
2019-04-27T08:31:48.635Z,7.60
2019-04-27T08:32:53.940Z,7.65
2019-04-27T08:33:58.573Z,8.43
2019-04-27T08:35:03.077Z,7.97
2019-04-27T08:36:06.710Z,7.90
2019-04-27T08:37:10.362Z,8.58
2019-04-27T08:38:14.034Z,7.70
2019-04-27T08:39:18.661Z,8.23
2019-04-27T08:40:22.874Z,7.72
2019-04-27T08:41:26.511Z,7.45
2019-04-27T08:42:30.169Z,7.47
2019-04-27T08:43:35.480Z,8.58
2019-04-27T08:44:39.714Z,8.45
2019-04-27T08:45:43.480Z,8.30
2019-04-27T08:46:47.111Z,8.83
2019-04-27T08:47:50.757Z,9.43
2019-04-27T08:48:54.445Z,8.73
2019-04-27T08:49:59.121Z,8.63
2019-04-27T08:51:02.914Z,8.53
2019-04-27T08:52:06.575Z,9.25
2019-04-27T08:53:10.200Z,8.30
2019-04-27T08:54:13.855Z,7.90
2019-04-27T08:55:19.355Z,8.13
2019-04-27T08:56:22.895Z,8.03
2019-04-27T08:57:28.869Z,7.22
2019-04-27T08:58:32.259Z,7.65
2019-04-27T08:59:36.246Z,7.95
2019-04-27T09:00:39.882Z,8.10
2019-04-27T09:01:43.558Z,7.90
2019-04-27T09:02:48.072Z,7.15
2019-04-27T09:03:52.604Z,7.87
2019-04-27T09:04:56.237Z,7.30
2019-04-27T09:05:59.872Z,8.05
2019-04-27T09:07:05.208Z,7.30
2019-04-27T09:08:19.660Z,7.30
2019-04-27T09:09:39.814Z,7.25
2019-04-27T09:10:53.941Z,7.58
2019-04-27T09:12:15.344Z,7.67
2019-04-27T09:13:20.637Z,8.10
2019-04-27T09:14:25.962Z,7.92
2019-04-27T09:15:39.031Z,8.13
2019-04-27T09:16:57.295Z,8.55
2019-04-27T09:17:58.753Z,7.72
2019-04-27T09:19:03.918Z,8.45
2019-04-27T09:20:09.745Z,8.90
2019-04-27T09:21:13.383Z,8.10
2019-04-27T09:22:20.550Z,9.93
2019-04-27T09:23:22.407Z,9.60
2019-04-27T09:24:26.161Z,9.20
2019-04-27T09:25:32.385Z,8.28
2019-04-27T09:26:36.015Z,7.78
2019-04-27T09:27:39.674Z,8.00
2019-04-27T09:28:43.321Z,8.58
2019-04-27T09:29:46.952Z,7.92
2019-04-27T09:30:50.649Z,8.23
2019-04-27T09:31:54.286Z,7.60
2019-04-27T09:32:57.911Z,7.60
2019-04-27T09:34:01.569Z,7.60
2019-04-27T09:35:05.902Z,8.50
2019-04-27T09:36:10.703Z,8.23
2019-04-27T09:37:15.970Z,7.67
2019-04-27T09:38:19.666Z,7.85
2019-04-27T09:39:23.325Z,7.87
2019-04-27T09:40:27.324Z,8.23
2019-04-27T09:41:31.000Z,7.83
2019-04-27T09:42:38.139Z,7.97
2019-04-27T09:43:40.030Z,8.08
2019-04-27T09:44:43.665Z,8.83
2019-04-27T09:45:47.638Z,7.95
2019-04-27T09:46:53.396Z,8.05
2019-04-27T09:47:57.055Z,7.85
2019-04-27T09:49:00.708Z,7.55
2019-04-27T09:50:05.790Z,7.80
2019-04-27T09:51:09.881Z,9.15
2019-04-27T09:52:23.590Z,8.30
2019-04-27T09:53:19.030Z,9.05
2019-04-27T09:54:23.774Z,8.45
2019-04-27T09:55:27.506Z,8.58
2019-04-27T09:56:31.139Z,8.00
2019-04-27T09:57:37.845Z,7.62
2019-04-27T09:58:41.501Z,8.20
2019-04-27T09:59:46.042Z,8.28
2019-04-27T10:00:49.823Z,8.08
2019-04-27T10:01:53.487Z,13.58
2019-04-27T10:02:59.772Z,9.15
2019-04-27T10:04:04.947Z,8.13
2019-04-27T10:05:08.900Z,8.48
2019-04-27T10:06:12.810Z,21.55
2019-04-27T10:07:16.659Z,8.80
2019-04-27T10:08:20.297Z,9.83
2019-04-27T10:09:24.154Z,11.00
2019-04-27T10:10:27.890Z,8.95
2019-04-27T10:11:31.517Z,8.40
2019-04-27T10:12:36.840Z,9.13
2019-04-27T10:13:40.657Z,9.43
2019-04-27T10:14:45.448Z,9.13
2019-04-27T10:15:49.989Z,8.43
2019-04-27T10:16:53.645Z,9.43
2019-04-27T10:17:57.706Z,8.33
2019-04-27T10:19:01.705Z,8.35
2019-04-27T10:20:08.406Z,8.83
2019-04-27T10:21:11.990Z,8.93
2019-04-27T10:22:15.999Z,8.48
2019-04-27T10:23:19.752Z,8.45
2019-04-27T10:24:23.439Z,9.13
2019-04-27T10:25:28.568Z,8.73
2019-04-27T10:26:32.193Z,8.73
2019-04-27T10:27:35.962Z,8.45
2019-04-27T10:28:39.593Z,8.43
2019-04-27T10:29:43.320Z,9.25
2019-04-27T10:30:46.949Z,8.43
2019-04-27T10:31:50.618Z,8.13
2019-04-27T10:32:54.578Z,8.38
2019-04-27T10:33:58.207Z,8.50
2019-04-27T10:35:01.910Z,8.60
2019-04-27T10:36:06.486Z,9.35
2019-04-27T10:37:10.376Z,8.43
2019-04-27T10:38:15.390Z,8.73
2019-04-27T10:39:19.403Z,9.20
2019-04-27T10:40:23.065Z,8.88
2019-04-27T10:41:26.713Z,8.25
2019-04-27T10:42:30.576Z,9.38
2019-04-27T10:43:34.210Z,9.28
2019-04-27T10:44:37.864Z,8.70
2019-04-27T10:45:41.558Z,9.15
2019-04-27T10:46:45.269Z,9.10
2019-04-27T10:47:49.647Z,9.10
2019-04-27T10:48:56.387Z,8.90
2019-04-27T10:50:00.032Z,8.60
2019-04-27T10:51:07.387Z,8.45
2019-04-27T10:52:11.106Z,8.90
2019-04-27T10:53:16.477Z,8.70
2019-04-27T10:54:20.162Z,11.35
2019-04-27T10:55:23.780Z,8.08
2019-04-27T10:56:27.455Z,9.65
2019-04-27T10:57:31.109Z,9.10
2019-04-27T10:58:35.549Z,9.00
2019-04-27T10:59:39.356Z,8.63
2019-04-27T11:00:54.518Z,9.15
2019-04-27T11:01:58.176Z,8.40
2019-04-27T11:03:01.822Z,8.70
2019-04-27T11:04:19.793Z,8.30
2019-04-27T11:05:46.025Z,8.88
2019-04-27T11:06:54.471Z,7.95
2019-04-27T11:08:00.933Z,8.38
2019-04-27T11:09:07.477Z,8.38
2019-04-27T11:10:12.042Z,8.33
2019-04-27T11:11:15.685Z,9.38
2019-04-27T11:12:19.327Z,8.38
2019-04-27T11:13:23.011Z,9.63
2019-04-27T11:14:26.651Z,9.05
2019-04-27T11:15:30.401Z,8.95
2019-04-27T11:16:35.933Z,9.35
2019-04-27T11:17:39.411Z,9.05
2019-04-27T11:18:43.098Z,8.25
2019-04-27T11:19:46.742Z,8.03
2019-04-27T11:20:50.396Z,9.55
2019-04-27T11:21:54.036Z,8.63
2019-04-27T11:23:07.010Z,8.35
2019-04-27T11:24:03.089Z,8.65
2019-04-27T11:25:09.961Z,8.83
2019-04-27T11:26:13.605Z,8.53
2019-04-27T11:27:17.247Z,8.45
2019-04-27T11:28:20.900Z,8.68
2019-04-27T11:29:25.663Z,10.28
2019-04-27T11:30:30.019Z,8.90
2019-04-27T11:31:33.659Z,7.95
2019-04-27T11:32:37.456Z,8.43
2019-04-27T11:33:41.190Z,7.42
2019-04-27T11:35:01.574Z,7.45
2019-04-27T11:36:26.227Z,8.10
2019-04-27T11:37:31.530Z,7.53
2019-04-27T11:38:36.573Z,7.47
2019-04-27T11:39:40.273Z,7.95
2019-04-27T11:40:43.971Z,7.80
2019-04-27T11:41:47.708Z,7.65
2019-04-27T11:42:51.363Z,7.12
2019-04-27T11:43:56.569Z,7.83
2019-04-27T11:45:00.419Z,7.92
2019-04-27T11:46:06.052Z,8.95
2019-04-27T11:47:09.454Z,8.53
2019-04-27T11:48:13.094Z,8.13
2019-04-27T11:49:16.756Z,8.33
2019-04-27T11:50:20.512Z,8.50
2019-04-27T11:51:24.306Z,7.78
2019-04-27T11:52:28.282Z,8.13
2019-04-27T11:53:32.015Z,7.35
2019-04-27T11:54:36.013Z,8.93
2019-04-27T11:55:39.792Z,7.40
2019-04-27T11:56:43.577Z,8.38
2019-04-27T11:57:47.201Z,8.48
2019-04-27T11:58:50.828Z,8.20
2019-04-27T11:59:56.318Z,8.30
2019-04-27T12:01:00.555Z,7.00
2019-04-27T12:02:04.389Z,7.85
2019-04-27T12:03:08.020Z,7.87
2019-04-27T12:04:11.709Z,8.45
2019-04-27T12:05:16.133Z,8.33
2019-04-27T12:06:19.863Z,8.23
2019-04-27T12:07:23.563Z,8.53
2019-04-27T12:08:27.198Z,7.58
2019-04-27T12:09:30.830Z,7.90
2019-04-27T12:10:36.215Z,7.50
2019-04-27T12:11:41.594Z,7.08
2019-04-27T12:12:46.382Z,8.13
2019-04-27T12:13:50.107Z,8.20
2019-04-27T12:14:55.923Z,7.75
2019-04-27T12:15:59.509Z,7.80
2019-04-27T12:17:03.172Z,8.73
2019-04-27T12:18:08.916Z,8.05
2019-04-27T12:19:12.854Z,8.50
2019-04-27T12:20:17.941Z,8.45
2019-04-27T12:21:21.808Z,8.55
2019-04-27T12:22:25.464Z,7.97
2019-04-27T12:23:35.968Z,7.75
2019-04-27T12:24:35.613Z,7.65
2019-04-27T12:25:39.361Z,8.13
2019-04-27T12:27:01.146Z,8.33
2019-04-27T12:28:22.520Z,7.72
2019-04-27T12:29:27.908Z,8.15
2019-04-27T12:30:49.453Z,8.08
2019-04-27T12:31:53.207Z,8.38
2019-04-27T12:32:56.885Z,8.20
2019-04-27T12:34:00.531Z,8.98
2019-04-27T12:35:06.701Z,7.47
2019-04-27T12:36:10.645Z,9.08
2019-04-27T12:37:15.740Z,7.15
2019-04-27T12:38:19.793Z,7.60
2019-04-27T12:39:23.468Z,7.87
2019-04-27T12:40:27.328Z,8.53
2019-04-27T12:41:31.095Z,8.43
2019-04-27T12:42:36.374Z,8.73
2019-04-27T12:43:40.445Z,7.22
2019-04-27T12:44:44.831Z,6.95
2019-04-27T12:45:48.633Z,7.67
2019-04-27T12:46:52.461Z,8.45
2019-04-27T12:47:56.712Z,8.00
2019-04-27T12:49:00.394Z,8.95
2019-04-27T12:50:08.726Z,8.13
2019-04-27T12:51:12.478Z,7.70
2019-04-27T12:52:17.706Z,9.53
2019-04-27T12:53:28.831Z,8.70
2019-04-27T12:54:37.122Z,7.47
2019-04-27T12:55:46.507Z,8.50
2019-04-27T12:57:08.312Z,7.90
2019-04-27T12:58:16.740Z,7.72
2019-04-27T12:59:27.743Z,8.00
2019-04-27T13:00:36.019Z,8.03
2019-04-27T13:01:48.977Z,9.30
2019-04-27T13:02:55.590Z,8.58
2019-04-27T13:03:59.513Z,7.67
2019-04-27T13:05:05.588Z,7.75
2019-04-27T13:06:09.488Z,7.47
2019-04-27T13:07:16.023Z,7.78
2019-04-27T13:08:19.737Z,6.67
2019-04-27T13:09:23.402Z,6.75
2019-04-27T13:10:27.051Z,5.80
2019-04-27T13:11:31.097Z,7.75
2019-04-27T13:12:35.773Z,6.87
2019-04-27T13:13:39.657Z,8.25
2019-04-27T13:14:45.615Z,7.00
2019-04-27T13:15:51.018Z,6.45
2019-04-27T13:16:56.492Z,6.60
2019-04-27T13:18:01.147Z,6.67
2019-04-27T13:19:06.128Z,7.17
2019-04-27T13:20:10.122Z,7.50
2019-04-27T13:21:13.799Z,7.15
2019-04-27T13:22:17.420Z,7.58
2019-04-27T13:23:21.071Z,7.30
2019-04-27T13:24:26.100Z,6.90
2019-04-27T13:25:30.254Z,5.78
2019-04-27T13:26:33.885Z,6.83
2019-04-27T13:27:37.685Z,6.30
2019-04-27T13:28:42.001Z,7.53
2019-04-27T13:29:46.674Z,8.15
2019-04-27T13:30:50.475Z,7.22
2019-04-27T13:31:55.976Z,8.05
2019-04-27T13:32:59.461Z,7.28
2019-04-27T13:34:03.119Z,7.60
2019-04-27T13:35:08.459Z,7.65
2019-04-27T13:36:14.346Z,7.22
2019-04-27T13:37:19.829Z,7.03
2019-04-27T13:38:23.550Z,7.30
2019-04-27T13:39:30.222Z,6.67
2019-04-27T13:40:38.726Z,7.42
2019-04-27T13:41:42.342Z,6.80
2019-04-27T13:42:53.526Z,8.00
2019-04-27T13:43:57.497Z,6.72
2019-04-27T13:45:02.988Z,7.22
2019-04-27T13:46:26.054Z,7.58
2019-04-27T13:47:40.514Z,7.20
2019-04-27T13:49:02.021Z,7.62
2019-04-27T13:50:14.156Z,7.10
2019-04-27T13:51:31.823Z,7.40
2019-04-27T13:52:36.269Z,7.40
2019-04-27T13:53:42.975Z,7.80
2019-04-27T13:54:50.097Z,7.58
2019-04-27T13:55:53.826Z,7.58
2019-04-27T13:56:58.928Z,6.60
2019-04-27T13:58:02.642Z,6.03
2019-04-27T13:59:07.754Z,7.17
2019-04-27T14:00:13.861Z,7.65
2019-04-27T14:01:17.527Z,8.05
2019-04-27T14:02:24.231Z,7.65
2019-04-27T14:03:29.065Z,6.62
2019-04-27T14:04:32.916Z,6.42
2019-04-27T14:05:36.581Z,6.55
2019-04-27T14:06:42.071Z,5.85
2019-04-27T14:07:45.832Z,5.92
2019-04-27T14:08:49.579Z,4.53
2019-04-27T14:09:53.217Z,4.70
2019-04-27T14:10:56.854Z,4.83
2019-04-27T14:12:04.919Z,5.30
2019-04-27T14:13:10.898Z,5.33
2019-04-27T14:14:14.500Z,5.03
2019-04-27T14:15:18.762Z,4.87
2019-04-27T14:16:22.371Z,5.13
2019-04-27T14:17:26.002Z,4.13
2019-04-27T14:18:29.673Z,4.27